createdAt,value
2018-04-14T00:02:15.003Z,94984.63
2018-04-14T00:04:43.431Z,94990.79
2018-04-14T00:07:11.834Z,94989.89
2018-04-14T00:09:40.228Z,94986.67
2018-04-14T00:12:08.667Z,94985.23
2018-04-14T00:14:37.144Z,94993.33
2018-04-14T00:17:05.515Z,94994.06
2018-04-14T00:19:33.919Z,94997.87
2018-04-14T00:22:02.320Z,94976.97
2018-04-14T00:24:30.754Z,95006.37
2018-04-14T00:26:59.159Z,95003.13
2018-04-14T00:29:27.515Z,94986.91
2018-04-14T00:31:55.918Z,95006.53
2018-04-14T00:34:24.367Z,95009.19
2018-04-14T00:36:52.776Z,95014.48
2018-04-14T00:39:21.192Z,95014.97
2018-04-14T00:41:49.652Z,95007.95
2018-04-14T00:44:18.034Z,95014.55
2018-04-14T00:46:46.486Z,95016.67
2018-04-14T00:49:14.875Z,95012.05
2018-04-14T00:51:43.275Z,95007.88
2018-04-14T00:54:11.688Z,95014.08
2018-04-14T00:56:40.100Z,95020.06
2018-04-14T00:59:08.554Z,95017.59
2018-04-14T01:01:37.075Z,95015.00
2018-04-14T01:04:05.502Z,95014.50
2018-04-14T01:06:33.864Z,95012.19
2018-04-14T01:09:02.436Z,94993.27
2018-04-14T01:11:30.891Z,95014.74
2018-04-14T01:13:59.306Z,95014.72
2018-04-14T01:16:27.738Z,95018.00
2018-04-14T01:18:56.165Z,95022.73
2018-04-14T01:21:24.570Z,95030.82
2018-04-14T01:23:52.934Z,95031.70
2018-04-14T01:26:21.376Z,95036.83
2018-04-14T01:28:50.485Z,95030.33
2018-04-14T01:31:18.919Z,95035.20
2018-04-14T01:33:47.343Z,95033.67
2018-04-14T01:36:16.156Z,95039.88
2018-04-14T01:38:44.560Z,95040.93
2018-04-14T01:41:12.999Z,95051.14
2018-04-14T01:43:41.386Z,95043.45
2018-04-14T01:46:09.776Z,95042.62
2018-04-14T01:48:38.202Z,95047.61
2018-04-14T01:51:06.631Z,95046.02
2018-04-14T01:53:35.027Z,95046.80
2018-04-14T01:56:03.421Z,95042.91
2018-04-14T01:58:31.878Z,95048.54
2018-04-14T02:01:00.274Z,95018.52
2018-04-14T02:03:28.715Z,95050.77
2018-04-14T02:05:57.155Z,95048.06
2018-04-14T02:08:25.536Z,95054.95
2018-04-14T02:10:53.963Z,95054.73
2018-04-14T02:13:22.530Z,95053.79
2018-04-14T02:15:50.934Z,95059.28
2018-04-14T02:18:19.361Z,95053.13
2018-04-14T02:20:47.807Z,95060.32
2018-04-14T02:23:16.212Z,95055.19
2018-04-14T02:25:44.651Z,95056.88
2018-04-14T02:28:13.030Z,95061.21
2018-04-14T02:30:41.421Z,95064.63
2018-04-14T02:33:09.859Z,95067.69
2018-04-14T02:35:38.284Z,95070.97
2018-04-14T02:38:06.667Z,95065.34
2018-04-14T02:40:35.099Z,95062.97
2018-04-14T02:43:03.486Z,95065.25
2018-04-14T02:45:31.914Z,95066.61
2018-04-14T02:48:00.284Z,95059.73
2018-04-14T02:50:28.695Z,95063.06
2018-04-14T02:52:57.080Z,95040.56
2018-04-14T02:55:25.499Z,95058.88
2018-04-14T02:57:53.874Z,95063.39
2018-04-14T03:00:22.273Z,95067.34
2018-04-14T03:02:50.678Z,95064.11
2018-04-14T03:05:19.071Z,95066.91
2018-04-14T03:07:47.514Z,95064.82
2018-04-14T03:10:15.959Z,95057.51
2018-04-14T03:12:44.342Z,95060.94
2018-04-14T03:15:13.060Z,95069.73
2018-04-14T03:17:41.527Z,95071.64
2018-04-14T03:20:09.914Z,95074.03
2018-04-14T03:22:38.307Z,95070.33
2018-04-14T03:25:06.738Z,95072.08
2018-04-14T03:27:35.143Z,95077.02
2018-04-14T03:30:03.968Z,95075.16
2018-04-14T03:32:32.363Z,95076.47
2018-04-14T03:35:01.614Z,95077.02
2018-04-14T03:37:30.539Z,95078.96
2018-04-14T03:39:58.911Z,95012.50
2018-04-14T03:42:27.291Z,95084.52
2018-04-14T03:44:56.091Z,95084.16
2018-04-14T03:47:25.271Z,95083.59
2018-04-14T03:49:53.694Z,95088.00
2018-04-14T03:52:22.242Z,95082.77
2018-04-14T03:54:50.635Z,95087.68
2018-04-14T03:57:19.019Z,95086.36
2018-04-14T03:59:47.786Z,95090.75
2018-04-14T04:02:17.139Z,95073.74
2018-04-14T04:04:45.529Z,95096.34
2018-04-14T04:07:14.165Z,95097.58
2018-04-14T04:09:42.529Z,95102.89
2018-04-14T04:12:10.900Z,95103.64
2018-04-14T04:14:39.366Z,95103.92
2018-04-14T04:17:07.749Z,95110.59
2018-04-14T04:19:49.072Z,95111.19
2018-04-14T04:22:29.347Z,95111.89
2018-04-14T04:25:09.252Z,95118.69
2018-04-14T04:27:37.339Z,95122.78
2018-04-14T04:30:05.427Z,95126.97
2018-04-14T04:32:33.571Z,95125.87
2018-04-14T04:35:01.656Z,95124.95
2018-04-14T04:37:29.799Z,95135.27
2018-04-14T04:39:57.963Z,95135.31
2018-04-14T04:42:26.083Z,95140.11
2018-04-14T04:44:54.235Z,95143.38
2018-04-14T04:47:22.395Z,95139.52
2018-04-14T04:49:50.491Z,95141.27
2018-04-14T04:52:18.645Z,95144.83
2018-04-14T04:54:46.786Z,95151.22
2018-04-14T04:57:14.934Z,95150.29
2018-04-14T04:59:43.010Z,95151.20
2018-04-14T05:02:11.112Z,95154.77
2018-04-14T05:04:39.247Z,95159.34
2018-04-14T05:07:07.338Z,95160.70
2018-04-14T05:09:35.422Z,95161.62
2018-04-14T05:12:03.552Z,95159.47
2018-04-14T05:14:31.651Z,95158.41
2018-04-14T05:16:59.794Z,95165.09
2018-04-14T05:19:27.896Z,95161.70
2018-04-14T05:21:56.042Z,95165.81
2018-04-14T05:24:24.175Z,95170.38
2018-04-14T05:26:52.274Z,95171.63
2018-04-14T05:29:20.412Z,95178.34
2018-04-14T05:31:48.492Z,95166.05
2018-04-14T05:34:16.637Z,95148.09
2018-04-14T05:36:44.743Z,95162.03
2018-04-14T05:39:12.823Z,95160.25
2018-04-14T05:41:41.037Z,95172.16
2018-04-14T05:44:09.170Z,95168.77
2018-04-14T05:46:37.306Z,95169.86
2018-04-14T05:49:05.394Z,95175.80
2018-04-14T05:51:33.578Z,95179.27
2018-04-14T05:54:01.715Z,95183.75
2018-04-14T05:56:29.839Z,95177.58
2018-04-14T05:58:57.980Z,95175.45
2018-04-14T06:01:26.110Z,95180.70
2018-04-14T06:03:54.299Z,95185.06
2018-04-14T06:06:22.502Z,95187.95
2018-04-14T06:08:50.624Z,95185.34
2018-04-14T06:11:18.739Z,95167.31
2018-04-14T06:13:46.863Z,95171.66
2018-04-14T06:16:15.039Z,95195.34
2018-04-14T06:18:43.182Z,95199.97
2018-04-14T06:21:11.290Z,95196.42
2018-04-14T06:23:39.439Z,95200.74
2018-04-14T06:26:07.557Z,95195.34
2018-04-14T06:28:35.638Z,95197.73
2018-04-14T06:31:03.772Z,95201.69
2018-04-14T06:33:31.883Z,95201.08
2018-04-14T06:36:00.057Z,95167.69
2018-04-14T06:38:28.192Z,95202.00
2018-04-14T06:40:56.267Z,95201.16
2018-04-14T06:43:24.373Z,95194.67
2018-04-14T06:45:52.548Z,95203.98
2018-04-14T06:48:20.653Z,95199.77
2018-04-14T06:50:48.824Z,95211.78
2018-04-14T06:53:16.930Z,95205.72
2018-04-14T06:55:45.062Z,95202.83
2018-04-14T06:58:13.213Z,95203.39
2018-04-14T07:00:41.289Z,95207.44
2018-04-14T07:03:09.511Z,95205.59
2018-04-14T07:05:37.621Z,95175.55
2018-04-14T07:08:05.812Z,95208.04
2018-04-14T07:10:33.934Z,95215.73
2018-04-14T07:13:02.099Z,95210.75
2018-04-14T07:15:30.324Z,95214.16
2018-04-14T07:17:58.478Z,95220.29
2018-04-14T07:20:26.562Z,95220.98
2018-04-14T07:22:54.835Z,95222.62
2018-04-14T07:25:22.998Z,95224.66
2018-04-14T07:27:51.162Z,95226.80
2018-04-14T07:30:19.300Z,95222.25
2018-04-14T07:32:47.446Z,95229.05
2018-04-14T07:35:15.571Z,95225.19
2018-04-14T07:37:43.671Z,95222.91
2018-04-14T07:40:11.791Z,95223.61
2018-04-14T07:42:39.935Z,95223.31
2018-04-14T07:45:08.092Z,95222.78
2018-04-14T07:47:36.310Z,95225.44
2018-04-14T07:50:04.531Z,95228.51
2018-04-14T07:52:32.647Z,95224.20
2018-04-14T07:55:00.767Z,95225.66
2018-04-14T07:57:28.917Z,95225.75
2018-04-14T07:59:57.005Z,95226.19
2018-04-14T08:02:25.147Z,95219.11
2018-04-14T08:04:53.290Z,95223.77
2018-04-14T08:07:22.570Z,95221.36
2018-04-14T08:09:50.678Z,95220.42
2018-04-14T08:12:18.763Z,95225.43
2018-04-14T08:14:46.954Z,95223.56
2018-04-14T08:17:15.060Z,95217.86
2018-04-14T08:19:43.248Z,95226.52
2018-04-14T08:22:11.415Z,95221.78
2018-04-14T08:24:39.513Z,95217.16
2018-04-14T08:27:07.642Z,95220.72
2018-04-14T08:29:35.895Z,95216.25
2018-04-14T08:32:04.058Z,95212.84
2018-04-14T08:34:32.255Z,95208.20
2018-04-14T08:37:00.394Z,95208.81
2018-04-14T08:39:28.814Z,95212.05
2018-04-14T08:41:56.963Z,95219.25
2018-04-14T08:44:25.103Z,95213.01
2018-04-14T08:46:53.215Z,95205.16
2018-04-14T08:49:21.382Z,95202.80
2018-04-14T08:51:49.455Z,95203.59
2018-04-14T08:54:17.589Z,95202.06
2018-04-14T08:56:45.690Z,95203.31
2018-04-14T08:59:13.814Z,95190.36
2018-04-14T09:01:41.956Z,95185.98
2018-04-14T09:04:10.091Z,95190.48
2018-04-14T09:06:38.202Z,95185.06
2018-04-14T09:09:06.403Z,95188.20
2018-04-14T09:11:34.581Z,95184.69
2018-04-14T09:14:02.711Z,95177.66
2018-04-14T09:16:30.804Z,95179.71
2018-04-14T09:18:59.330Z,95170.86
2018-04-14T09:21:27.715Z,95172.27
2018-04-14T09:23:56.234Z,95174.70
2018-04-14T09:26:24.682Z,95149.21
2018-04-14T09:28:53.047Z,95162.44
2018-04-14T09:31:21.455Z,95156.75
2018-04-14T09:33:50.686Z,95166.31
2018-04-14T09:36:19.082Z,95164.06
2018-04-14T09:38:47.468Z,95161.09
2018-04-14T09:41:16.016Z,95156.55
2018-04-14T09:43:44.479Z,95152.30
2018-04-14T09:46:12.866Z,95152.94
2018-04-14T09:48:41.234Z,95151.78
2018-04-14T09:51:09.647Z,95149.13
2018-04-14T09:53:38.031Z,95149.83
2018-04-14T09:56:06.506Z,95148.77
2018-04-14T09:58:34.979Z,95150.52
2018-04-14T10:01:09.001Z,95139.05
2018-04-14T10:03:37.416Z,95141.14
2018-04-14T10:06:05.847Z,95124.72
2018-04-14T10:08:34.247Z,95136.78
2018-04-14T10:11:02.633Z,95135.43
2018-04-14T10:13:31.069Z,95138.02
2018-04-14T10:15:59.483Z,95139.98
2018-04-14T10:18:27.863Z,95137.01
2018-04-14T10:20:56.306Z,95126.64
2018-04-14T10:23:24.731Z,95130.05
2018-04-14T10:25:53.160Z,95127.47
2018-04-14T10:28:21.555Z,95119.27
2018-04-14T10:30:50.043Z,95138.32
2018-04-14T10:33:18.463Z,95131.19
2018-04-14T10:35:46.831Z,95126.05
2018-04-14T10:38:15.410Z,95125.34
2018-04-14T10:40:43.828Z,95121.45
2018-04-14T10:43:12.268Z,95122.91
2018-04-14T10:45:40.704Z,95115.35
2018-04-14T10:48:09.112Z,95127.09
2018-04-14T10:50:37.545Z,95117.09
2018-04-14T10:53:06.046Z,95123.58
2018-04-14T10:55:34.432Z,95122.93
2018-04-14T10:58:02.791Z,95115.36
2018-04-14T11:00:31.218Z,95111.94
2018-04-14T11:02:59.712Z,95109.98
2018-04-14T11:05:28.068Z,95117.14
2018-04-14T11:07:56.516Z,95110.56
2018-04-14T11:10:24.935Z,95104.98
2018-04-14T11:12:53.359Z,95118.57
2018-04-14T11:15:21.756Z,95115.87
2018-04-14T11:17:50.150Z,95110.30
2018-04-14T11:20:18.613Z,95114.09
2018-04-14T11:22:47.027Z,95110.58
2018-04-14T11:25:15.414Z,95093.73
2018-04-14T11:27:43.853Z,95102.63
2018-04-14T11:30:12.251Z,95106.30
2018-04-14T11:32:41.276Z,95105.05
2018-04-14T11:35:09.700Z,95098.72
2018-04-14T11:37:38.066Z,95101.06
2018-04-14T11:40:06.458Z,95094.55
2018-04-14T11:42:34.909Z,95089.70
2018-04-14T11:45:03.295Z,95094.64
2018-04-14T11:47:31.778Z,95099.14
2018-04-14T11:50:00.147Z,95087.02
2018-04-14T11:52:28.627Z,95085.68
2018-04-14T11:54:57.086Z,95084.67
2018-04-14T11:57:25.541Z,95070.94
2018-04-14T11:59:53.963Z,95078.67
2018-04-14T12:02:22.357Z,95072.13
2018-04-14T12:04:50.777Z,95079.39
2018-04-14T12:07:19.161Z,95078.45
2018-04-14T12:09:47.588Z,95073.06
2018-04-14T12:12:15.986Z,95071.13
2018-04-14T12:14:44.509Z,95068.74
2018-04-14T12:17:13.015Z,95061.96
2018-04-14T12:19:41.401Z,95059.60
2018-04-14T12:22:09.839Z,95058.67
2018-04-14T12:24:38.226Z,95061.40
2018-04-14T12:27:06.662Z,95062.61
2018-04-14T12:29:35.059Z,95055.99
2018-04-14T12:32:03.442Z,95060.36
2018-04-14T12:34:31.876Z,95055.47
2018-04-14T12:37:00.282Z,95049.85
2018-04-14T12:39:28.658Z,95054.60
2018-04-14T12:41:57.137Z,95052.70
2018-04-14T12:44:25.520Z,95043.33
2018-04-14T12:46:53.910Z,95044.19
2018-04-14T12:49:22.264Z,95046.75
2018-04-14T12:51:50.647Z,95042.39
2018-04-14T12:54:19.091Z,95041.03
2018-04-14T12:56:47.510Z,95029.30
2018-04-14T12:59:15.891Z,95049.46
2018-04-14T13:01:44.299Z,95040.02
2018-04-14T13:04:12.743Z,95034.86
2018-04-14T13:06:41.118Z,95035.11
2018-04-14T13:09:09.731Z,95026.80
2018-04-14T13:11:38.107Z,95026.59
2018-04-14T13:14:06.512Z,95024.27
2018-04-14T13:16:34.872Z,95023.16
2018-04-14T13:19:03.291Z,95025.06
2018-04-14T13:21:31.787Z,95011.75
2018-04-14T13:24:00.144Z,95025.77
2018-04-14T13:26:28.643Z,95026.16
2018-04-14T13:28:57.014Z,95018.19
2018-04-14T13:31:25.435Z,95019.67
2018-04-14T13:33:53.905Z,95020.50
2018-04-14T13:36:22.267Z,95024.23
2018-04-14T13:38:50.643Z,95022.12
2018-04-14T13:41:19.079Z,95021.42
2018-04-14T13:43:47.455Z,95026.64
2018-04-14T13:46:15.891Z,95029.75
2018-04-14T13:48:44.319Z,95019.04
2018-04-14T13:51:12.728Z,95018.79
2018-04-14T13:53:41.078Z,95006.68
2018-04-14T13:56:09.484Z,95017.33
2018-04-14T13:58:37.847Z,95015.42
2018-04-14T14:01:06.515Z,95019.84
2018-04-14T14:03:34.917Z,95006.23
2018-04-14T14:06:03.327Z,95014.58
2018-04-14T14:08:31.699Z,95013.51
2018-04-14T14:11:00.127Z,95023.85
2018-04-14T14:13:28.524Z,94997.27
2018-04-14T14:15:56.936Z,95013.53
2018-04-14T14:18:25.345Z,95009.41
2018-04-14T14:20:53.798Z,95010.83
2018-04-14T14:23:22.186Z,95006.16
2018-04-14T14:25:50.591Z,95009.86
2018-04-14T14:28:18.955Z,95015.14
2018-04-14T14:30:47.431Z,95019.75
2018-04-14T14:33:15.897Z,95025.45
2018-04-14T14:35:44.274Z,95029.06
2018-04-14T14:38:12.707Z,95028.86
2018-04-14T14:40:41.138Z,95022.88
2018-04-14T14:43:09.546Z,95026.49
2018-04-14T14:45:37.943Z,95027.91
2018-04-14T14:48:06.439Z,95021.46
2018-04-14T14:50:34.851Z,95031.86
2018-04-14T14:53:03.262Z,95024.37
2018-04-14T14:55:31.618Z,95020.09
2018-04-14T14:58:00.042Z,95042.89
2018-04-14T15:00:28.490Z,95042.16
2018-04-14T15:02:56.933Z,95040.91
2018-04-14T15:05:25.319Z,95037.02
2018-04-14T15:07:53.771Z,95049.41
2018-04-14T15:10:22.171Z,95057.46
2018-04-14T15:12:50.593Z,95052.02
2018-04-14T15:15:19.097Z,95051.91
2018-04-14T15:17:47.503Z,95049.85
2018-04-14T15:20:15.958Z,95053.47
2018-04-14T15:22:44.396Z,95058.23
2018-04-14T15:25:12.798Z,95051.64
2018-04-14T15:27:41.219Z,95064.85
2018-04-14T15:30:09.654Z,95052.67
2018-04-14T15:32:38.075Z,95079.09
2018-04-14T15:35:06.516Z,95080.38
2018-04-14T15:37:34.919Z,95085.02
2018-04-14T15:40:03.323Z,95088.50
2018-04-14T15:42:31.739Z,95082.48
2018-04-14T15:45:00.284Z,95094.81
2018-04-14T15:47:28.724Z,95109.67
2018-04-14T15:49:57.258Z,95099.76
2018-04-14T15:52:25.639Z,95107.91
2018-04-14T15:54:54.176Z,95104.50
2018-04-14T15:57:22.559Z,95107.74
2018-04-14T15:59:50.968Z,95113.42
2018-04-14T16:02:19.728Z,95102.95
2018-04-14T16:04:48.123Z,95113.60
2018-04-14T16:07:16.490Z,95110.80
2018-04-14T16:09:45.366Z,95120.66
2018-04-14T16:12:13.733Z,95114.98
2018-04-14T16:14:42.131Z,95129.17
2018-04-14T16:17:10.543Z,95131.26
2018-04-14T16:19:38.967Z,95136.05
2018-04-14T16:22:07.407Z,95130.58
2018-04-14T16:24:36.272Z,95126.34
2018-04-14T16:27:04.639Z,95127.69
2018-04-14T16:29:33.017Z,95126.56
2018-04-14T16:32:01.816Z,95124.36
2018-04-14T16:34:30.197Z,95130.87
2018-04-14T16:36:58.580Z,95125.90
2018-04-14T16:39:27.161Z,95123.58
2018-04-14T16:41:55.535Z,95106.30
2018-04-14T16:44:23.900Z,95123.59
2018-04-14T16:46:52.483Z,95127.11
2018-04-14T16:49:20.933Z,95130.60
2018-04-14T16:51:49.342Z,95132.47
2018-04-14T16:54:17.958Z,95133.59
2018-04-14T16:56:46.338Z,95128.84
2018-04-14T16:59:14.714Z,95129.54
2018-04-14T17:01:43.124Z,95135.23
2018-04-14T17:04:11.531Z,95134.44
2018-04-14T17:06:40.161Z,95133.25
2018-04-14T17:09:08.564Z,95144.92
2018-04-14T17:11:37.007Z,95149.33
2018-04-14T17:14:05.408Z,95147.56
2018-04-14T17:16:33.816Z,95154.97
2018-04-14T17:19:02.242Z,95132.98
2018-04-14T17:21:30.643Z,95149.73
2018-04-14T17:23:59.041Z,95157.88
2018-04-14T17:26:27.407Z,95169.51
2018-04-14T17:28:55.837Z,95166.11
2018-04-14T17:31:24.859Z,95168.28
2018-04-14T17:33:53.257Z,95134.31
2018-04-14T17:36:21.663Z,95178.89
2018-04-14T17:38:50.062Z,95172.46
2018-04-14T17:41:18.496Z,95155.02
2018-04-14T17:43:46.875Z,95187.47
2018-04-14T17:46:15.235Z,95182.84
2018-04-14T17:48:43.650Z,95186.25
2018-04-14T17:51:12.022Z,95190.38
2018-04-14T17:53:40.487Z,95183.84
2018-04-14T17:56:08.956Z,95192.83
2018-04-14T17:58:37.427Z,95198.66
2018-04-14T18:01:05.829Z,95200.71
2018-04-14T18:03:34.238Z,95206.72
2018-04-14T18:06:02.687Z,95208.04
2018-04-14T18:08:31.054Z,95210.69
2018-04-14T18:10:59.490Z,95216.63
2018-04-14T18:13:27.921Z,95214.47
2018-04-14T18:15:56.424Z,95209.02
2018-04-14T18:18:24.908Z,95214.59
2018-04-14T18:20:53.301Z,95218.98
2018-04-14T18:23:21.767Z,95218.31
2018-04-14T18:25:50.208Z,95222.03
2018-04-14T18:28:18.629Z,95222.61
2018-04-14T18:30:47.010Z,95220.00
2018-04-14T18:33:15.423Z,95217.59
2018-04-14T18:35:43.973Z,95220.50
2018-04-14T18:38:12.356Z,95229.36
2018-04-14T18:40:40.791Z,95223.84
2018-04-14T18:43:09.273Z,95227.14
2018-04-14T18:45:37.630Z,95232.30
2018-04-14T18:48:06.020Z,95240.64
2018-04-14T18:50:34.448Z,95241.42
2018-04-14T18:53:02.828Z,95238.53
2018-04-14T18:55:31.247Z,95234.19
2018-04-14T18:57:59.666Z,95238.16
2018-04-14T19:00:28.091Z,95234.34
2018-04-14T19:02:56.526Z,95232.89
2018-04-14T19:05:24.918Z,95234.98
2018-04-14T19:07:53.319Z,95240.77
2018-04-14T19:10:21.777Z,95236.00
2018-04-14T19:12:50.143Z,95233.66
2018-04-14T19:15:18.535Z,95235.63
2018-04-14T19:17:46.980Z,95237.73
2018-04-14T19:20:15.465Z,95213.90
2018-04-14T19:22:43.870Z,95236.62
2018-04-14T19:25:12.316Z,95241.50
2018-04-14T19:27:40.718Z,95241.22
2018-04-14T19:30:09.157Z,95237.27
2018-04-14T19:32:37.576Z,95217.20
2018-04-14T19:35:05.974Z,95236.45
2018-04-14T19:37:34.479Z,95238.41
2018-04-14T19:40:02.899Z,95231.39
2018-04-14T19:42:31.291Z,95232.16
2018-04-14T19:44:59.719Z,95211.64
2018-04-14T19:47:28.091Z,95231.25
2018-04-14T19:49:56.507Z,95233.94
2018-04-14T19:52:24.952Z,95213.22
2018-04-14T19:54:53.379Z,95229.52
2018-04-14T19:57:21.741Z,95232.63
2018-04-14T19:59:50.152Z,95226.05
2018-04-14T20:02:18.523Z,95227.85
2018-04-14T20:04:46.964Z,95236.30
2018-04-14T20:07:15.327Z,95218.40
2018-04-14T20:09:43.736Z,95220.53
2018-04-14T20:12:12.198Z,95238.91
2018-04-14T20:14:40.597Z,95234.66
2018-04-14T20:17:08.975Z,95230.73
2018-04-14T20:19:37.527Z,95236.67
2018-04-14T20:22:05.907Z,95230.56
2018-04-14T20:24:34.336Z,95239.16
2018-04-14T20:27:02.705Z,95244.96
2018-04-14T20:29:31.079Z,95245.36
2018-04-14T20:31:59.495Z,95248.27
2018-04-14T20:34:27.888Z,95249.95
2018-04-14T20:36:56.286Z,95240.20
2018-04-14T20:39:24.702Z,95242.05
2018-04-14T20:41:53.080Z,95237.83
2018-04-14T20:44:21.519Z,95247.37
2018-04-14T20:46:49.944Z,95243.67
2018-04-14T20:49:18.319Z,95252.63
2018-04-14T20:54:21.429Z,95257.33
2018-04-14T20:56:49.835Z,95253.51
2018-04-14T20:59:18.279Z,95248.91
2018-04-14T21:01:46.689Z,95250.91
2018-04-14T21:04:15.114Z,95253.93
2018-04-14T21:06:43.496Z,95256.72
2018-04-14T21:09:11.915Z,95269.39
2018-04-14T21:11:40.304Z,95270.07
2018-04-14T21:14:08.666Z,95264.75
2018-04-14T21:16:37.063Z,95267.81
2018-04-14T21:19:05.519Z,95266.88
2018-04-14T21:21:33.964Z,95267.69
2018-04-14T21:24:02.335Z,95263.72
2018-04-14T21:26:30.742Z,95268.22
2018-04-14T21:28:59.127Z,95269.53
2018-04-14T21:31:27.570Z,95272.43
2018-04-14T21:33:55.947Z,95278.13
2018-04-14T21:36:24.392Z,95278.27
2018-04-14T21:38:52.783Z,95272.44
2018-04-14T21:41:21.244Z,95272.30
2018-04-14T21:43:49.663Z,95276.63
2018-04-14T21:46:18.117Z,95272.44
2018-04-14T21:48:46.690Z,95283.13
2018-04-14T21:51:15.135Z,95279.30
2018-04-14T21:53:43.591Z,95272.71
2018-04-14T21:56:11.967Z,95271.62
2018-04-14T21:58:40.371Z,95276.26
2018-04-14T22:01:08.808Z,95281.52
2018-04-14T22:03:37.242Z,95276.27
2018-04-14T22:06:05.651Z,95275.88
2018-04-14T22:08:34.080Z,95278.39
2018-04-14T22:11:02.478Z,95284.70
2018-04-14T22:13:30.974Z,95280.35
2018-04-14T22:15:59.366Z,95272.84
2018-04-14T22:18:27.749Z,95278.77
2018-04-14T22:20:56.147Z,95276.81
2018-04-14T22:23:24.579Z,95284.85
2018-04-14T22:25:53.038Z,95291.27
2018-04-14T22:28:21.474Z,95292.22
2018-04-14T22:30:49.889Z,95296.84
2018-04-14T22:33:18.319Z,95296.56
2018-04-14T22:35:46.742Z,95296.96
2018-04-14T22:38:15.191Z,95307.02
2018-04-14T22:40:43.561Z,95299.80
2018-04-14T22:43:11.973Z,95304.92
2018-04-14T22:45:40.403Z,95301.38
2018-04-14T22:48:08.815Z,95302.50
2018-04-14T22:50:37.241Z,95281.27
2018-04-14T22:53:05.621Z,95302.94
2018-04-14T22:55:34.045Z,95308.84
2018-04-14T22:58:02.956Z,95308.38
2018-04-14T23:00:31.364Z,95305.05
2018-04-14T23:02:59.862Z,95297.17
2018-04-14T23:05:28.289Z,95296.94
2018-04-14T23:07:56.686Z,95297.18
2018-04-14T23:10:25.140Z,95289.17
2018-04-14T23:12:53.523Z,95294.23
2018-04-14T23:15:21.940Z,95288.23
2018-04-14T23:17:50.385Z,95286.21
2018-04-14T23:20:18.759Z,95294.92
2018-04-14T23:22:47.183Z,95292.52
2018-04-14T23:25:15.563Z,95287.38
2018-04-14T23:27:43.987Z,95293.02
2018-04-14T23:30:12.411Z,95294.12
2018-04-14T23:32:40.858Z,95297.09
2018-04-14T23:35:09.242Z,95298.67
2018-04-14T23:37:37.636Z,95292.42
2018-04-14T23:40:06.075Z,95301.75
2018-04-14T23:42:34.509Z,95297.22
2018-04-14T23:45:02.893Z,95301.11
2018-04-14T23:47:31.394Z,95292.55
2018-04-14T23:49:59.842Z,95296.77
2018-04-14T23:52:28.201Z,95295.34
2018-04-14T23:54:56.629Z,95292.52
2018-04-14T23:57:25.053Z,95291.31
2018-04-14T23:59:53.508Z,95263.44
